createdAt,value
2023-07-03T00:02:54.915Z,100.00
2023-07-03T00:06:11.660Z,100.00
2023-07-03T00:09:28.108Z,100.00
2023-07-03T00:12:44.995Z,100.00
2023-07-03T00:16:05.874Z,100.00
2023-07-03T00:19:24.066Z,100.00
2023-07-03T00:22:40.691Z,100.00
2023-07-03T00:25:57.363Z,100.00
2023-07-03T00:29:16.238Z,100.00
2023-07-03T00:32:32.642Z,100.00
2023-07-03T00:35:49.858Z,100.00
2023-07-03T00:39:09.280Z,100.00
2023-07-03T00:42:25.800Z,100.00
2023-07-03T00:45:45.152Z,100.00
2023-07-03T00:49:01.839Z,100.00
2023-07-03T00:55:34.194Z,100.00
2023-07-03T00:58:50.786Z,100.00
2023-07-03T01:02:12.813Z,100.00
2023-07-03T01:05:34.455Z,100.00
2023-07-03T01:08:54.348Z,100.00
2023-07-03T01:12:13.661Z,100.00
2023-07-03T01:15:37.971Z,100.00
2023-07-03T01:18:56.503Z,100.00
2023-07-03T01:25:31.029Z,100.00
2023-07-03T01:28:50.775Z,100.00
2023-07-03T01:32:11.358Z,100.00
2023-07-03T01:35:29.090Z,100.00
2023-07-03T01:38:52.764Z,100.00
2023-07-03T01:42:10.608Z,100.00
2023-07-03T01:45:28.301Z,100.00
2023-07-03T01:48:46.001Z,100.00
2023-07-03T01:52:08.334Z,100.00
2023-07-03T01:55:29.765Z,100.00
2023-07-03T01:58:50.516Z,100.00
2023-07-03T02:02:12.217Z,100.00
2023-07-03T02:05:34.380Z,100.00
2023-07-03T02:08:51.613Z,100.00
2023-07-03T02:12:08.938Z,100.00
2023-07-03T02:15:26.354Z,100.00
2023-07-03T02:18:43.008Z,100.00
2023-07-03T02:21:59.426Z,100.00
2023-07-03T02:25:18.183Z,100.00
2023-07-03T02:28:34.739Z,100.00
2023-07-03T02:31:51.861Z,100.00
2023-07-03T02:35:08.322Z,100.00
2023-07-03T02:38:24.874Z,100.00
2023-07-03T02:41:41.467Z,100.00
2023-07-03T02:44:59.740Z,100.00
2023-07-03T02:48:18.368Z,100.00
2023-07-03T02:51:36.523Z,100.00
2023-07-03T02:54:52.281Z,100.00
2023-07-03T02:58:08.541Z,100.00
2023-07-03T03:01:25.867Z,100.00
2023-07-03T03:04:42.358Z,100.00
2023-07-03T03:07:58.864Z,100.00
2023-07-03T03:11:16.144Z,100.00
2023-07-03T03:14:32.801Z,100.00
2023-07-03T03:17:49.582Z,100.00
2023-07-03T03:21:06.534Z,100.00
2023-07-03T03:24:23.393Z,100.00
2023-07-03T03:27:39.773Z,100.00
2023-07-03T03:30:56.432Z,100.00
2023-07-03T03:34:14.693Z,100.00
2023-07-03T03:37:31.181Z,100.00
2023-07-03T03:40:49.623Z,100.00
2023-07-03T03:44:06.020Z,100.00
2023-07-03T03:47:23.569Z,100.00
2023-07-03T03:50:41.032Z,100.00
2023-07-03T03:53:57.695Z,100.00
2023-07-03T03:57:16.071Z,100.00
2023-07-03T04:00:32.892Z,100.00
2023-07-03T04:03:49.456Z,100.00
2023-07-03T04:07:05.923Z,100.00
2023-07-03T04:10:22.648Z,100.00
2023-07-03T04:13:39.169Z,100.00
2023-07-03T04:16:59.314Z,100.00
2023-07-03T04:20:20.540Z,100.00
2023-07-03T04:23:37.220Z,100.00
2023-07-03T04:26:55.630Z,100.00
2023-07-03T04:30:14.029Z,100.00
2023-07-03T04:33:30.777Z,100.00
2023-07-03T04:36:49.689Z,100.00
2023-07-03T04:40:05.560Z,100.00
2023-07-03T04:43:21.941Z,100.00
2023-07-03T04:46:40.337Z,100.00
2023-07-03T04:49:57.205Z,100.00
2023-07-03T04:53:13.729Z,100.00
2023-07-03T04:56:30.861Z,100.00
2023-07-03T04:59:47.127Z,100.00
2023-07-03T05:03:05.977Z,100.00
2023-07-03T05:06:22.590Z,100.00
2023-07-03T05:09:39.136Z,100.00
2023-07-03T05:12:56.480Z,100.00
2023-07-03T05:16:13.462Z,100.00
2023-07-03T05:19:30.176Z,100.00
2023-07-03T05:26:02.268Z,100.00
2023-07-03T05:29:19.884Z,100.00
2023-07-03T05:32:36.473Z,100.00
2023-07-03T05:35:54.501Z,100.00
2023-07-03T05:39:11.388Z,100.00
2023-07-03T05:42:29.136Z,100.00
2023-07-03T05:45:45.486Z,100.00
2023-07-03T05:49:01.923Z,100.00
2023-07-03T05:52:20.652Z,100.00
2023-07-03T05:55:37.175Z,100.00
2023-07-03T05:58:54.188Z,100.00
2023-07-03T06:02:13.156Z,100.00
2023-07-03T06:05:30.059Z,100.00
2023-07-03T06:08:46.465Z,100.00
2023-07-03T06:12:03.318Z,100.00
2023-07-03T06:15:23.979Z,100.00
2023-07-03T06:18:40.396Z,100.00
2023-07-03T06:21:56.823Z,100.00
2023-07-03T06:25:16.050Z,100.00
2023-07-03T06:28:32.689Z,100.00
2023-07-03T06:31:49.490Z,100.00
2023-07-03T06:35:07.624Z,100.00
2023-07-03T06:38:24.268Z,100.00
2023-07-03T06:41:43.113Z,100.00
2023-07-03T06:45:00.027Z,100.00
2023-07-03T06:48:16.639Z,100.00
2023-07-03T06:51:37.582Z,100.00
2023-07-03T06:54:54.951Z,100.00
2023-07-03T06:58:11.892Z,100.00
2023-07-03T07:01:31.481Z,100.00
2023-07-03T07:04:49.808Z,100.00
2023-07-03T07:08:06.345Z,100.00
2023-07-03T07:11:32.415Z,100.00
2023-07-03T07:14:53.513Z,100.00
2023-07-03T07:18:10.052Z,100.00
2023-07-03T07:21:26.895Z,100.00
2023-07-03T07:24:43.630Z,100.00
2023-07-03T07:28:00.253Z,100.00
2023-07-03T07:31:17.105Z,100.00
2023-07-03T07:34:34.382Z,100.00
2023-07-03T07:37:51.402Z,100.00
2023-07-03T07:41:12.653Z,100.00
2023-07-03T07:44:29.220Z,100.00
2023-07-03T07:47:45.720Z,100.00
2023-07-03T07:51:06.172Z,100.00
2023-07-03T07:54:22.841Z,100.00
2023-07-03T07:57:39.295Z,100.00
2023-07-03T08:01:01.539Z,100.00
2023-07-03T08:04:18.312Z,100.00
2023-07-03T08:14:06.611Z,100.00
2023-07-03T08:17:23.247Z,100.00
2023-07-03T08:20:39.768Z,100.00
2023-07-03T08:23:56.930Z,100.00
2023-07-03T08:27:14.187Z,100.00
2023-07-03T08:30:31.795Z,100.00
2023-07-03T08:33:48.553Z,100.00
2023-07-03T08:37:08.147Z,100.00
2023-07-03T08:40:28.072Z,99.53
2023-07-03T08:43:48.783Z,100.00
2023-07-03T08:47:12.156Z,100.00
2023-07-03T08:50:37.077Z,97.30
2023-07-03T08:57:09.265Z,100.00
2023-07-03T09:00:28.753Z,100.00
2023-07-03T09:03:52.832Z,100.00
2023-07-03T09:07:14.830Z,99.22
2023-07-03T09:10:36.782Z,98.95
2023-07-03T09:13:59.100Z,100.00
2023-07-03T09:17:19.249Z,100.00
2023-07-03T09:20:37.656Z,100.00
2023-07-03T09:27:17.052Z,100.00
2023-07-03T09:30:34.912Z,99.48
2023-07-03T09:33:51.981Z,100.00
2023-07-03T09:37:09.500Z,97.49
2023-07-03T09:43:41.952Z,96.83
2023-07-03T09:46:58.614Z,99.12
2023-07-03T09:50:18.489Z,96.96
2023-07-03T09:56:51.644Z,95.54
2023-07-03T10:00:22.905Z,96.73
2023-07-03T10:03:42.102Z,96.28
2023-07-03T10:07:10.430Z,95.77
2023-07-03T10:13:53.759Z,100.00
2023-07-03T10:17:17.645Z,95.46
2023-07-03T10:20:39.436Z,97.42
2023-07-03T10:23:57.135Z,96.10
2023-07-03T10:27:15.707Z,97.19
2023-07-03T10:30:33.562Z,97.57
2023-07-03T10:33:54.912Z,99.26
2023-07-03T10:37:15.815Z,98.87
2023-07-03T10:40:37.666Z,99.74
2023-07-03T10:43:59.741Z,100.00
2023-07-03T10:47:25.780Z,100.00
2023-07-03T10:50:47.402Z,100.00
2023-07-03T10:54:10.019Z,100.00
2023-07-03T10:57:32.067Z,98.17
2023-07-03T11:00:54.986Z,97.73
2023-07-03T11:04:24.600Z,100.00
2023-07-03T11:07:45.726Z,99.19
2023-07-03T11:11:08.105Z,98.57
2023-07-03T11:14:30.113Z,100.00
2023-07-03T11:24:46.248Z,100.00
2023-07-03T11:28:10.834Z,100.00
2023-07-03T11:31:30.368Z,100.00
2023-07-03T11:45:34.754Z,100.00
2023-07-03T11:49:01.234Z,100.00
2023-07-03T11:52:35.564Z,100.00
2023-07-03T11:56:02.997Z,100.00
2023-07-03T11:59:31.980Z,100.00
2023-07-03T12:03:06.422Z,100.00
2023-07-03T12:06:57.315Z,100.00
2023-07-03T12:11:08.704Z,100.00
2023-07-03T12:14:59.214Z,100.00
2023-07-03T12:18:20.996Z,100.00
2023-07-03T12:21:49.655Z,100.00
2023-07-03T12:25:20.378Z,100.00
2023-07-03T12:31:46.891Z,100.00
2023-07-03T12:35:25.196Z,100.00
2023-07-03T12:41:58.520Z,100.00
2023-07-03T12:45:34.184Z,100.00
2023-07-03T12:48:50.663Z,100.00
2023-07-03T12:52:07.276Z,100.00
2023-07-03T12:58:40.285Z,100.00
2023-07-03T13:02:01.080Z,100.00
2023-07-03T13:05:22.933Z,100.00
2023-07-03T13:08:39.890Z,100.00
2023-07-03T13:11:57.582Z,100.00
2023-07-03T13:15:18.083Z,100.00
2023-07-03T13:18:34.834Z,100.00
2023-07-03T13:21:51.456Z,100.00
2023-07-03T13:28:31.114Z,100.00
2023-07-03T13:31:52.635Z,100.00
2023-07-03T13:35:13.274Z,100.00
2023-07-03T13:43:34.963Z,100.00
2023-07-03T13:46:54.341Z,100.00
2023-07-03T13:50:11.444Z,100.00
2023-07-03T13:53:28.608Z,100.00
2023-07-03T14:00:00.903Z,100.00
2023-07-03T14:03:20.079Z,100.00
2023-07-03T14:06:42.614Z,100.00
2023-07-03T14:13:15.955Z,100.00
2023-07-03T14:16:33.280Z,100.00
2023-07-03T14:19:49.745Z,100.00
2023-07-03T14:23:06.407Z,100.00
2023-07-03T14:26:24.811Z,100.00
2023-07-03T14:29:41.230Z,100.00
2023-07-03T14:32:58.376Z,100.00
2023-07-03T14:36:16.118Z,100.00
2023-07-03T14:42:48.585Z,100.00
2023-07-03T14:46:05.369Z,100.00
2023-07-03T14:49:24.161Z,100.00
2023-07-03T14:52:45.051Z,100.00
2023-07-03T14:59:18.329Z,100.00
2023-07-03T15:02:33.099Z,100.00
2023-07-03T15:05:50.069Z,100.00
2023-07-03T15:13:37.489Z,100.00
2023-07-03T15:16:54.000Z,100.00
2023-07-03T15:20:13.013Z,100.00
2023-07-03T15:23:30.034Z,100.00
2023-07-03T15:30:02.889Z,100.00
2023-07-03T15:33:19.379Z,100.00
2023-07-03T15:36:36.037Z,100.00
2023-07-03T15:39:52.862Z,100.00
2023-07-03T15:43:09.317Z,100.00
2023-07-03T15:46:26.845Z,100.00
2023-07-03T15:49:41.827Z,100.00
2023-07-03T15:53:01.675Z,100.00
2023-07-03T15:56:32.235Z,100.00
2023-07-03T15:59:50.917Z,100.00
2023-07-03T16:03:10.393Z,100.00
2023-07-03T16:06:31.206Z,100.00
2023-07-03T16:09:47.569Z,100.00
2023-07-03T16:13:05.684Z,100.00
2023-07-03T16:16:26.275Z,100.00
2023-07-03T16:19:42.890Z,100.00
2023-07-03T16:22:59.307Z,100.00
2023-07-03T16:29:31.286Z,100.00
2023-07-03T16:32:48.178Z,100.00
2023-07-03T16:36:10.901Z,100.00
2023-07-03T16:39:27.818Z,100.00
2023-07-03T16:42:44.253Z,100.00
2023-07-03T16:46:02.902Z,100.00
2023-07-03T16:49:17.252Z,100.00
2023-07-03T16:52:33.685Z,100.00
2023-07-03T16:55:50.759Z,100.00
2023-07-03T16:59:09.134Z,100.00
2023-07-03T17:02:25.927Z,100.00
2023-07-03T17:05:43.598Z,100.00
2023-07-03T17:09:00.213Z,100.00
2023-07-03T17:12:18.139Z,100.00
2023-07-03T17:15:34.746Z,100.00
2023-07-03T17:18:52.412Z,100.00
2023-07-03T17:22:08.993Z,100.00
2023-07-03T17:28:41.905Z,100.00
2023-07-03T17:32:02.088Z,100.00
2023-07-03T17:35:19.235Z,100.00
2023-07-03T17:38:38.205Z,100.00
2023-07-03T17:41:55.157Z,100.00
2023-07-03T17:45:14.184Z,100.00
2023-07-03T17:48:31.094Z,100.00
2023-07-03T17:51:47.591Z,100.00
2023-07-03T17:55:04.205Z,100.00
2023-07-03T17:58:22.474Z,100.00
2023-07-03T18:01:40.417Z,100.00
2023-07-03T18:04:56.933Z,100.00
2023-07-03T18:08:14.703Z,100.00
2023-07-03T18:14:47.561Z,100.00
2023-07-03T18:18:04.653Z,100.00
2023-07-03T18:21:23.351Z,100.00
2023-07-03T18:24:42.312Z,100.00
2023-07-03T18:27:59.709Z,100.00
2023-07-03T18:31:16.909Z,100.00
2023-07-03T18:34:33.989Z,100.00
2023-07-03T18:37:50.733Z,100.00
2023-07-03T18:44:23.590Z,100.00
2023-07-03T18:47:43.524Z,100.00
2023-07-03T18:51:00.142Z,100.00
2023-07-03T18:54:17.204Z,100.00
2023-07-03T18:57:35.556Z,100.00
2023-07-03T19:00:52.667Z,100.00
2023-07-03T19:04:09.559Z,100.00
2023-07-03T19:07:27.291Z,100.00
2023-07-03T19:14:12.232Z,100.00
2023-07-03T19:17:30.511Z,100.00
2023-07-03T19:20:47.961Z,100.00
2023-07-03T19:24:05.257Z,100.00
2023-07-03T19:30:39.811Z,100.00
2023-07-03T19:37:18.776Z,100.00
2023-07-03T19:43:53.927Z,100.00
2023-07-03T19:47:11.750Z,100.00
2023-07-03T19:51:07.453Z,100.00
2023-07-03T19:54:24.576Z,100.00
2023-07-03T19:57:46.096Z,100.00
2023-07-03T20:01:13.044Z,100.00
2023-07-03T20:04:33.601Z,100.00
2023-07-03T20:07:50.886Z,100.00
2023-07-03T20:11:11.810Z,100.00
2023-07-03T20:14:28.596Z,100.00
2023-07-03T20:17:45.259Z,100.00
2023-07-03T20:21:04.904Z,100.00
2023-07-03T20:24:22.574Z,100.00
2023-07-03T20:27:41.105Z,100.00
2023-07-03T20:30:59.964Z,100.00
2023-07-03T20:34:14.178Z,100.00
2023-07-03T20:37:31.204Z,100.00
2023-07-03T20:40:47.847Z,100.00
2023-07-03T20:44:07.015Z,100.00
2023-07-03T20:47:23.993Z,100.00
2023-07-03T20:50:42.299Z,100.00
2023-07-03T20:54:07.861Z,100.00
2023-07-03T20:57:24.321Z,100.00
2023-07-03T21:00:41.108Z,100.00
2023-07-03T21:04:00.520Z,100.00
2023-07-03T21:07:17.891Z,100.00
2023-07-03T21:10:34.490Z,100.00
2023-07-03T21:13:52.733Z,100.00
2023-07-03T21:17:09.528Z,100.00
2023-07-03T21:20:26.282Z,100.00
2023-07-03T21:23:42.762Z,100.00
2023-07-03T21:26:59.924Z,100.00
2023-07-03T21:30:19.331Z,100.00
2023-07-03T21:33:36.758Z,100.00
2023-07-03T21:36:53.688Z,100.00
2023-07-03T21:40:11.802Z,100.00
2023-07-03T21:43:30.032Z,100.00
2023-07-03T21:46:47.233Z,100.00
2023-07-03T21:50:03.783Z,100.00
2023-07-03T21:53:20.520Z,100.00
2023-07-03T21:56:40.335Z,100.00
2023-07-03T21:59:59.206Z,100.00
2023-07-03T22:03:16.510Z,100.00
2023-07-03T22:06:35.394Z,100.00
2023-07-03T22:09:49.624Z,100.00
2023-07-03T22:13:06.686Z,100.00
2023-07-03T22:16:25.789Z,100.00
2023-07-03T22:19:45.449Z,100.00
2023-07-03T22:23:01.756Z,100.00
2023-07-03T22:26:18.498Z,100.00
2023-07-03T22:29:35.050Z,100.00
2023-07-03T22:32:51.828Z,100.00
2023-07-03T22:36:08.777Z,100.00
2023-07-03T22:39:25.395Z,100.00
2023-07-03T22:42:42.164Z,100.00
2023-07-03T22:45:58.663Z,100.00
2023-07-03T22:49:24.593Z,100.00
2023-07-03T22:52:33.521Z,100.00
2023-07-03T22:55:51.310Z,100.00
2023-07-03T22:59:09.117Z,100.00
2023-07-03T23:02:30.423Z,100.00
2023-07-03T23:05:53.270Z,100.00
2023-07-03T23:09:10.547Z,100.00
2023-07-03T23:12:27.181Z,100.00
2023-07-03T23:15:43.769Z,100.00
2023-07-03T23:19:00.116Z,100.00
2023-07-03T23:22:17.279Z,100.00
2023-07-03T23:25:34.316Z,100.00
2023-07-03T23:28:52.245Z,100.00
2023-07-03T23:32:09.527Z,100.00
2023-07-03T23:35:26.038Z,100.00
2023-07-03T23:38:44.858Z,100.00
2023-07-03T23:41:58.996Z,100.00
2023-07-03T23:45:17.488Z,100.00
2023-07-03T23:48:33.764Z,100.00
2023-07-03T23:51:50.944Z,100.00
2023-07-03T23:55:07.464Z,100.00
2023-07-03T23:58:24.452Z,100.00
